Time;durP1;ratioP1;P1;durP2;ratioP2;P2;SDS_P1;SDS_P2;PMS_P1;PMS_P2;Temp;Humidity;BMP_temperature;BMP_pressure;BME280_temperature;BME280_humidity;BME280_pressure;Samples;Min_cycle;Max_cycle;Signal;HPM_P1;HPM_P2
2023/08/07 00:00:23;;;;;;;18.58;4.03;;;15.80;99.90;;;;;;5114013;28;20468;-72
2023/08/07 00:02:49;;;;;;;14.65;3.90;;;15.80;99.90;;;;;;5113170;28;20024;-71
2023/08/07 00:05:16;;;;;;;14.07;4.22;;;15.90;99.90;;;;;;5114082;28;20113;-71
2023/08/07 00:07:42;;;;;;;17.45;4.03;;;15.80;99.90;;;;;;5114056;28;20043;-72
2023/08/07 00:10:09;;;;;;;12.43;4.20;;;15.80;99.90;;;;;;5114058;28;20110;-72
2023/08/07 00:12:35;;;;;;;17.48;3.92;;;15.70;99.90;;;;;;5114608;28;20061;-71
2023/08/07 00:15:02;;;;;;;13.77;4.30;;;15.70;99.90;;;;;;5114302;28;20475;-72
2023/08/07 00:17:28;;;;;;;11.57;3.90;;;15.70;99.90;;;;;;5114469;28;20020;-72
2023/08/07 00:19:54;;;;;;;18.20;3.85;;;15.70;99.90;;;;;;5113927;28;20429;-71
2023/08/07 00:22:20;;;;;;;22.48;5.13;;;15.80;99.90;;;;;;5114389;28;20051;-72
2023/08/07 00:24:45;;;;;;;21.67;4.30;;;15.70;99.90;;;;;;5112884;28;20475;-71
2023/08/07 00:27:12;;;;;;;17.05;4.07;;;15.60;99.90;;;;;;5114073;28;20043;-71
2023/08/07 00:29:38;;;;;;;15.52;4.30;;;15.70;99.90;;;;;;5113654;28;20015;-72
2023/08/07 00:32:04;;;;;;;16.20;4.60;;;15.70;99.90;;;;;;5113969;28;20028;-72
2023/08/07 00:34:30;;;;;;;14.93;3.97;;;15.70;99.90;;;;;;5113616;28;20142;-72
2023/08/07 00:36:56;;;;;;;10.07;3.70;;;15.70;99.90;;;;;;5113867;28;20099;-73
2023/08/07 00:39:22;;;;;;;12.70;3.67;;;15.60;99.90;;;;;;5113234;28;20036;-71
2023/08/07 00:41:48;;;;;;;10.57;3.72;;;15.50;99.90;;;;;;5113652;28;20095;-72
2023/08/07 00:44:13;;;;;;;16.33;3.83;;;15.60;99.90;;;;;;5106786;28;20036;-71
2023/08/07 00:46:39;;;;;;;18.42;3.80;;;15.60;99.90;;;;;;5101651;28;20482;-71
2023/08/07 00:49:06;;;;;;;9.80;3.55;;;15.60;99.90;;;;;;5092867;28;20035;-71
2023/08/07 00:51:32;;;;;;;14.23;4.25;;;15.60;99.90;;;;;;5091946;28;20107;-70
2023/08/07 00:54:00;;;;;;;16.88;3.10;;;15.60;99.90;;;;;;5113545;28;20549;-71
2023/08/07 00:56:26;;;;;;;17.52;3.15;;;15.70;99.90;;;;;;5103812;28;20023;-71
2023/08/07 00:58:52;;;;;;;17.08;3.70;;;15.60;99.90;;;;;;5095788;28;20113;-71
2023/08/07 01:01:18;;;;;;;14.05;2.85;;;15.60;99.90;;;;;;5103167;28;20476;-71
2023/08/07 01:03:44;;;;;;;13.82;3.17;;;15.50;99.90;;;;;;5102621;28;20076;-71
2023/08/07 01:06:09;;;;;;;12.73;3.00;;;15.50;99.90;;;;;;5101620;28;20502;-71
2023/08/07 01:08:36;;;;;;;15.65;3.60;;;15.50;99.90;;;;;;5099649;28;20086;-72
2023/08/07 01:11:28;;;;;;;9.70;2.67;;;15.50;99.90;;;;;;5112926;28;20047;-72
2023/08/07 01:14:13;;;;;;;8.38;3.10;;;15.50;99.90;;;;;;5113566;28;20012;-71
2023/08/07 01:16:55;;;;;;;14.57;3.58;;;15.50;99.90;;;;;;5112763;28;20026;-71
2023/08/07 01:19:27;;;;;;;14.88;3.53;;;15.50;99.90;;;;;;5111334;28;20027;-71
2023/08/07 01:22:14;;;;;;;13.57;3.03;;;15.50;99.90;;;;;;5112949;28;20052;-73
2023/08/07 01:24:41;;;;;;;9.98;2.50;;;15.50;99.90;;;;;;5112948;27;20107;-72
2023/08/07 01:27:18;;;;;;;20.90;4.18;;;15.50;99.90;;;;;;5112816;28;20059;-71
2023/08/07 01:29:58;;;;;;;12.38;3.20;;;15.50;99.90;;;;;;5112421;28;20357;-72
2023/08/07 01:32:55;;;;;;;11.23;3.17;;;15.60;99.90;;;;;;5111983;28;20046;-71
2023/08/07 01:35:26;;;;;;;11.02;3.80;;;15.60;99.90;;;;;;5112878;28;20031;-71
2023/08/07 01:37:55;;;;;;;13.45;3.80;;;15.50;99.90;;;;;;5112621;28;20027;-71
2023/08/07 01:40:22;;;;;;;20.92;4.22;;;15.60;99.90;;;;;;5112831;28;20115;-71
2023/08/07 01:42:48;;;;;;;11.15;3.28;;;15.60;99.90;;;;;;5112916;28;20476;-71
2023/08/07 01:45:14;;;;;;;12.65;3.97;;;15.60;99.90;;;;;;5111763;28;20110;-71
2023/08/07 01:47:40;;;;;;;16.02;3.50;;;15.50;99.90;;;;;;5112736;28;20099;-71
2023/08/07 01:50:06;;;;;;;13.02;3.78;;;15.60;99.90;;;;;;5111156;28;20469;-71
2023/08/07 01:52:32;;;;;;;13.15;3.78;;;15.60;99.90;;;;;;5112573;28;20043;-71
2023/08/07 01:54:58;;;;;;;11.43;3.75;;;15.60;99.90;;;;;;5112768;28;20039;-70
2023/08/07 01:57:24;;;;;;;13.30;4.05;;;15.70;99.90;;;;;;5112614;28;20055;-71
2023/08/07 01:59:49;;;;;;;14.30;3.72;;;15.60;99.90;;;;;;5111928;28;20055;-71
2023/08/07 02:02:15;;;;;;;14.60;3.75;;;15.70;99.90;;;;;;5111601;28;20028;-71
2023/08/07 02:04:41;;;;;;;10.88;3.28;;;15.60;99.90;;;;;;5112694;28;20035;-70
2023/08/07 02:07:06;;;;;;;13.40;3.92;;;15.60;99.90;;;;;;5112533;28;20031;-70
2023/08/07 02:09:32;;;;;;;11.68;3.00;;;15.70;99.90;;;;;;5112450;28;20027;-71
2023/08/07 02:11:58;;;;;;;13.45;4.00;;;15.60;99.90;;;;;;5111120;28;20353;-70
2023/08/07 02:14:23;;;;;;;17.30;4.18;;;15.60;99.90;;;;;;5112289;28;20024;-71
2023/08/07 02:16:49;;;;;;;14.40;4.38;;;15.60;99.90;;;;;;5111801;28;20395;-71
2023/08/07 02:19:15;;;;;;;13.30;4.10;;;15.70;99.90;;;;;;5111994;28;20034;-71
2023/08/07 02:21:40;;;;;;;12.25;3.90;;;15.70;99.90;;;;;;5112162;28;20034;-71
2023/08/07 02:24:06;;;;;;;17.90;4.70;;;15.70;99.90;;;;;;5112538;28;20026;-71
2023/08/07 02:26:32;;;;;;;11.73;3.90;;;15.60;99.90;;;;;;5110654;28;20067;-70
2023/08/07 02:28:57;;;;;;;14.32;3.70;;;15.60;99.90;;;;;;5109966;28;20052;-70
2023/08/07 02:31:23;;;;;;;11.63;3.67;;;15.60;99.90;;;;;;5112436;28;20045;-71
2023/08/07 02:33:48;;;;;;;11.02;3.53;;;15.60;99.90;;;;;;5111131;28;20016;-70
2023/08/07 02:36:14;;;;;;;9.85;3.47;;;15.60;99.90;;;;;;5112409;28;20361;-71
2023/08/07 02:38:40;;;;;;;11.48;3.20;;;15.60;99.90;;;;;;5112282;28;20063;-71
2023/08/07 02:41:06;;;;;;;8.77;3.22;;;15.60;99.90;;;;;;5111911;28;20042;-71
2023/08/07 02:43:34;;;;;;;14.65;3.75;;;15.60;99.90;;;;;;5111983;28;20034;-70
2023/08/07 02:45:59;;;;;;;9.73;3.65;;;15.60;99.90;;;;;;5112154;28;20028;-70
2023/08/07 02:48:25;;;;;;;11.88;4.18;;;15.60;99.90;;;;;;5112224;28;20026;-70
2023/08/07 02:50:51;;;;;;;16.98;4.82;;;15.60;99.90;;;;;;5112172;28;20027;-71
2023/08/07 02:53:17;;;;;;;15.98;3.92;;;15.60;99.90;;;;;;5112273;28;20439;-70
2023/08/07 02:55:44;;;;;;;15.30;3.40;;;15.60;99.90;;;;;;5111527;28;20037;-70
2023/08/07 02:58:09;;;;;;;10.63;3.50;;;15.60;99.90;;;;;;5111463;28;20020;-70
2023/08/07 03:00:35;;;;;;;8.70;3.50;;;15.60;99.90;;;;;;5111222;28;20039;-70
2023/08/07 03:03:01;;;;;;;9.70;3.42;;;15.50;99.90;;;;;;5111862;28;20452;-71
2023/08/07 03:05:27;;;;;;;12.77;2.95;;;15.60;99.90;;;;;;5111927;28;20081;-71
2023/08/07 03:07:53;;;;;;;11.95;2.88;;;15.60;99.90;;;;;;5111705;28;20019;-70
2023/08/07 03:10:19;;;;;;;12.20;3.47;;;15.60;99.90;;;;;;5111698;28;20169;-70
2023/08/07 03:12:45;;;;;;;8.35;3.03;;;15.60;99.90;;;;;;5111745;28;20023;-70
2023/08/07 03:15:10;;;;;;;9.65;3.38;;;15.60;99.90;;;;;;5113622;28;20029;-70
2023/08/07 03:17:36;;;;;;;12.38;3.28;;;15.60;99.90;;;;;;5115650;28;20121;-71
2023/08/07 03:20:03;;;;;;;12.65;3.70;;;15.60;99.90;;;;;;5115593;28;20068;-70
2023/08/07 03:22:29;;;;;;;10.82;3.35;;;15.60;99.90;;;;;;5114335;28;20035;-71
2023/08/07 03:24:55;;;;;;;12.20;3.20;;;15.60;99.90;;;;;;5114859;28;20032;-71
2023/08/07 03:27:21;;;;;;;14.07;3.83;;;15.60;99.90;;;;;;5115293;28;20031;-71
2023/08/07 03:29:47;;;;;;;12.88;4.05;;;15.60;99.90;;;;;;5115004;28;20024;-71
2023/08/07 03:32:13;;;;;;;11.55;4.35;;;15.60;99.90;;;;;;5115594;28;20065;-71
2023/08/07 03:34:38;;;;;;;9.45;3.60;;;15.60;99.90;;;;;;5115273;28;20024;-71
2023/08/07 03:37:04;;;;;;;9.10;3.97;;;15.60;99.90;;;;;;5115290;28;20024;-71
2023/08/07 03:39:30;;;;;;;8.43;3.10;;;15.60;99.90;;;;;;5113652;28;20031;-71
2023/08/07 03:41:55;;;;;;;7.70;3.05;;;15.60;99.90;;;;;;5115052;28;20023;-71
2023/08/07 03:44:21;;;;;;;13.80;3.60;;;15.70;99.90;;;;;;5113239;28;20044;-71
2023/08/07 03:46:47;;;;;;;8.52;4.03;;;15.70;99.90;;;;;;5114707;28;20034;-71
2023/08/07 03:49:12;;;;;;;16.08;3.55;;;15.70;99.90;;;;;;5114800;28;20024;-71
2023/08/07 03:51:38;;;;;;;10.80;3.88;;;15.70;99.90;;;;;;5114495;28;20488;-71
2023/08/07 03:54:04;;;;;;;14.32;4.18;;;15.70;99.90;;;;;;5114927;28;20051;-71
2023/08/07 03:56:36;;;;;;;11.82;3.85;;;15.80;99.90;;;;;;5114396;27;20024;-71
2023/08/07 03:59:02;;;;;;;12.63;4.13;;;15.70;99.90;;;;;;5114555;28;20031;-71
2023/08/07 04:01:27;;;;;;;9.63;3.70;;;15.70;99.90;;;;;;5114411;28;20088;-71
2023/08/07 04:03:53;;;;;;;10.65;3.22;;;15.70;99.90;;;;;;5114493;28;20523;-71
2023/08/07 04:06:20;;;;;;;9.43;3.80;;;15.70;99.90;;;;;;5114370;28;20491;-71
2023/08/07 04:08:46;;;;;;;16.75;3.90;;;15.70;99.90;;;;;;5113831;28;20391;-71
2023/08/07 04:11:12;;;;;;;12.82;3.55;;;15.70;99.90;;;;;;5114811;28;20042;-70
2023/08/07 04:13:38;;;;;;;16.10;4.63;;;15.80;99.90;;;;;;5114342;28;20027;-71
2023/08/07 04:16:05;;;;;;;14.73;3.35;;;15.70;99.90;;;;;;5114507;28;20029;-72
2023/08/07 04:18:31;;;;;;;14.15;3.80;;;15.70;99.90;;;;;;5114977;28;20028;-71
2023/08/07 04:20:57;;;;;;;12.55;3.72;;;15.70;99.90;;;;;;5114238;28;20400;-71
2023/08/07 04:23:24;;;;;;;10.85;3.80;;;15.70;99.90;;;;;;5114495;28;20055;-71
2023/08/07 04:25:50;;;;;;;11.52;3.95;;;15.60;99.90;;;;;;5113184;28;20486;-71
2023/08/07 04:28:16;;;;;;;13.52;3.78;;;15.60;99.90;;;;;;5113872;28;20019;-71
2023/08/07 04:30:42;;;;;;;11.55;3.83;;;15.50;99.90;;;;;;5113830;28;20096;-70
2023/08/07 04:33:08;;;;;;;15.40;3.88;;;15.60;99.90;;;;;;5114351;28;20103;-71
2023/08/07 04:35:34;;;;;;;10.88;3.47;;;15.60;99.90;;;;;;5114086;28;20095;-70
2023/08/07 04:38:01;;;;;;;10.68;3.70;;;15.60;99.90;;;;;;5114349;28;20080;-70
2023/08/07 04:40:26;;;;;;;13.05;3.75;;;15.60;99.90;;;;;;5113779;28;20114;-71
2023/08/07 04:42:52;;;;;;;14.05;4.38;;;15.50;99.90;;;;;;5114156;28;20106;-70
2023/08/07 04:45:18;;;;;;;9.00;3.72;;;15.60;99.90;;;;;;5113706;28;20027;-71
2023/08/07 04:47:44;;;;;;;10.30;4.22;;;15.60;99.90;;;;;;5113921;28;20069;-70
2023/08/07 04:50:09;;;;;;;11.98;3.75;;;15.60;99.90;;;;;;5113658;28;20486;-71
2023/08/07 04:52:35;;;;;;;10.55;3.78;;;15.50;99.90;;;;;;5113896;28;20049;-71
2023/08/07 04:55:01;;;;;;;11.80;3.30;;;15.60;99.90;;;;;;5113470;28;20099;-71
2023/08/07 04:57:27;;;;;;;10.65;4.15;;;15.60;99.90;;;;;;5107784;28;20111;-70
2023/08/07 04:59:53;;;;;;;10.52;3.38;;;15.50;99.90;;;;;;5105049;28;20027;-70
2023/08/07 05:02:19;;;;;;;11.73;4.15;;;15.50;99.90;;;;;;5093478;28;20078;-70
2023/08/07 05:04:45;;;;;;;16.27;3.90;;;15.60;99.90;;;;;;5101137;28;20051;-70
2023/08/07 05:07:12;;;;;;;10.45;3.58;;;15.60;99.90;;;;;;5093402;28;20066;-70
2023/08/07 05:09:38;;;;;;;10.73;3.63;;;15.60;99.90;;;;;;5108291;28;20024;-70
2023/08/07 05:12:04;;;;;;;13.68;3.65;;;15.50;99.90;;;;;;5113335;27;20113;-70
2023/08/07 05:14:30;;;;;;;14.93;3.83;;;15.60;99.90;;;;;;5113029;28;20098;-70
2023/08/07 05:16:56;;;;;;;10.82;4.00;;;15.60;99.90;;;;;;5113541;28;20104;-70
2023/08/07 05:19:21;;;;;;;10.65;4.28;;;15.60;99.90;;;;;;5112623;28;20106;-70
2023/08/07 05:21:50;;;;;;;12.57;3.78;;;15.60;99.90;;;;;;5112585;28;20027;-70
2023/08/07 05:24:17;;;;;;;9.77;3.42;;;15.60;99.90;;;;;;5112978;28;20035;-70
2023/08/07 05:26:42;;;;;;;18.30;3.80;;;15.70;99.90;;;;;;5113147;28;20023;-70
2023/08/07 05:29:08;;;;;;;13.52;3.50;;;15.70;99.90;;;;;;5111446;28;20383;-70
2023/08/07 05:31:34;;;;;;;11.23;4.07;;;15.70;99.90;;;;;;5112725;28;20034;-70
2023/08/07 05:34:00;;;;;;;14.15;3.92;;;15.70;99.90;;;;;;5113201;28;20360;-70
2023/08/07 05:36:26;;;;;;;12.45;4.13;;;15.60;99.90;;;;;;5105497;28;20027;-70
2023/08/07 05:38:51;;;;;;;11.02;3.78;;;15.70;99.90;;;;;;5100463;28;20028;-70
2023/08/07 05:41:17;;;;;;;8.95;4.00;;;15.80;99.90;;;;;;5092398;28;20085;-71
2023/08/07 05:43:43;;;;;;;12.18;3.65;;;15.80;99.90;;;;;;5092508;28;20024;-70
2023/08/07 05:46:09;;;;;;;15.57;4.68;;;15.80;99.90;;;;;;5092407;28;20468;-70
2023/08/07 05:48:35;;;;;;;11.88;4.15;;;15.70;99.90;;;;;;5092438;28;20031;-70
2023/08/07 05:51:01;;;;;;;10.75;3.60;;;15.60;99.90;;;;;;5093375;28;20035;-70
2023/08/07 05:53:27;;;;;;;9.68;3.45;;;15.60;99.90;;;;;;5101091;28;20419;-70
2023/08/07 05:55:52;;;;;;;7.50;3.22;;;15.70;99.90;;;;;;5090446;28;20130;-71
2023/08/07 05:58:18;;;;;;;13.30;3.80;;;15.60;99.90;;;;;;5092273;28;20213;-71
2023/08/07 06:00:44;;;;;;;11.52;3.97;;;15.60;99.90;;;;;;5090758;28;20079;-71
2023/08/07 06:03:10;;;;;;;11.27;3.78;;;15.70;99.90;;;;;;5092148;28;20473;-70
2023/08/07 06:05:36;;;;;;;10.82;3.22;;;15.70;99.90;;;;;;5090563;28;20036;-70
2023/08/07 06:08:01;;;;;;;14.07;3.72;;;15.70;99.90;;;;;;5092717;28;20399;-71
2023/08/07 06:10:27;;;;;;;12.15;4.00;;;15.80;99.90;;;;;;5112529;28;20113;-70
2023/08/07 06:12:53;;;;;;;15.60;4.03;;;15.80;99.90;;;;;;5110873;28;20038;-70
2023/08/07 06:15:19;;;;;;;9.95;3.70;;;15.80;99.90;;;;;;5111035;28;20475;-70
2023/08/07 06:17:45;;;;;;;12.95;3.95;;;15.90;99.90;;;;;;5112191;28;20015;-70
2023/08/07 06:20:14;;;;;;;11.88;3.28;;;15.90;99.90;;;;;;5111961;28;20020;-69
2023/08/07 06:22:40;;;;;;;16.48;3.75;;;16.00;99.90;;;;;;5097140;28;20089;-71
2023/08/07 06:25:06;;;;;;;11.50;3.30;;;15.90;99.90;;;;;;5092132;28;20063;-70
2023/08/07 06:27:32;;;;;;;10.02;3.33;;;16.00;99.90;;;;;;5091702;28;20189;-70
2023/08/07 06:29:58;;;;;;;12.68;3.38;;;15.90;99.90;;;;;;5097314;28;20504;-70
2023/08/07 06:32:26;;;;;;;11.32;3.17;;;16.00;99.90;;;;;;5104736;28;20032;-70
2023/08/07 06:34:52;;;;;;;8.98;3.60;;;16.10;99.90;;;;;;5091539;28;20487;-70
2023/08/07 06:37:18;;;;;;;14.35;3.78;;;16.10;99.90;;;;;;5111243;28;20031;-70
2023/08/07 06:39:44;;;;;;;11.32;3.38;;;16.10;99.90;;;;;;5111046;28;20039;-70
2023/08/07 06:42:10;;;;;;;15.98;3.50;;;16.00;99.90;;;;;;5101148;28;20020;-70
2023/08/07 06:44:35;;;;;;;14.55;3.67;;;16.10;99.90;;;;;;5091289;28;20024;-71
2023/08/07 06:47:01;;;;;;;13.05;3.45;;;16.10;99.90;;;;;;5107002;28;20023;-69
2023/08/07 06:49:27;;;;;;;8.23;3.17;;;16.10;99.90;;;;;;5112663;28;20494;-70
2023/08/07 06:51:53;;;;;;;16.20;3.75;;;16.10;99.90;;;;;;5115592;28;20057;-71
2023/08/07 06:54:20;;;;;;;10.70;3.47;;;16.10;99.90;;;;;;5106942;28;20031;-70
2023/08/07 06:56:47;;;;;;;12.60;3.53;;;16.20;99.90;;;;;;5094211;28;20016;-71
2023/08/07 06:59:13;;;;;;;12.55;3.40;;;16.30;99.90;;;;;;5094147;28;20042;-70
2023/08/07 07:01:39;;;;;;;12.95;3.08;;;16.30;99.90;;;;;;5095642;28;20032;-70
2023/08/07 07:04:04;;;;;;;13.48;3.28;;;16.50;99.90;;;;;;5095201;28;20091;-70
2023/08/07 07:06:30;;;;;;;9.00;2.85;;;16.40;99.90;;;;;;5095342;28;20118;-69
2023/08/07 07:08:56;;;;;;;7.72;2.83;;;16.50;99.90;;;;;;5104453;28;20379;-70
2023/08/07 07:11:25;;;;;;;13.80;3.50;;;16.50;99.90;;;;;;5114061;28;20441;-70
2023/08/07 07:13:51;;;;;;;15.60;3.53;;;16.60;99.90;;;;;;5114381;28;20126;-70
2023/08/07 07:16:18;;;;;;;19.80;4.15;;;16.60;99.90;;;;;;5114125;27;20380;-70
2023/08/07 07:18:44;;;;;;;11.85;3.25;;;16.70;99.90;;;;;;5115222;28;20081;-71
2023/08/07 07:21:10;;;;;;;11.25;3.60;;;16.80;99.90;;;;;;5113670;28;20028;-71
2023/08/07 07:23:35;;;;;;;11.95;3.08;;;16.90;99.90;;;;;;5115292;28;20077;-70
2023/08/07 07:26:01;;;;;;;8.10;2.63;;;16.90;99.90;;;;;;5115332;28;20498;-69
2023/08/07 07:28:27;;;;;;;10.93;3.15;;;16.90;99.90;;;;;;5115041;28;20051;-70
2023/08/07 07:30:53;;;;;;;11.48;3.28;;;16.90;99.90;;;;;;5115089;28;20031;-69
2023/08/07 07:33:19;;;;;;;12.63;3.35;;;17.00;99.90;;;;;;5115147;28;20039;-69
2023/08/07 07:35:45;;;;;;;9.90;3.00;;;17.10;99.90;;;;;;5112838;28;20027;-70
2023/08/07 07:38:11;;;;;;;11.30;2.90;;;17.20;99.90;;;;;;5103669;28;20024;-69
2023/08/07 07:40:38;;;;;;;8.20;3.20;;;17.20;99.90;;;;;;5103012;28;20057;-70
2023/08/07 07:43:03;;;;;;;10.68;3.08;;;17.10;99.90;;;;;;5097957;28;20020;-71
2023/08/07 07:45:29;;;;;;;9.68;2.97;;;17.20;99.90;;;;;;5102013;28;20032;-71
2023/08/07 07:47:55;;;;;;;16.48;3.08;;;17.20;99.90;;;;;;5094106;28;20100;-70
2023/08/07 07:50:21;;;;;;;12.07;2.83;;;17.20;99.90;;;;;;5094480;28;20383;-71
2023/08/07 07:52:47;;;;;;;10.25;3.17;;;17.30;99.90;;;;;;5094712;28;20035;-71
2023/08/07 07:55:13;;;;;;;11.48;2.80;;;17.30;99.90;;;;;;5094549;28;20020;-71
2023/08/07 07:57:40;;;;;;;7.53;2.63;;;17.40;99.90;;;;;;5094402;28;20110;-70
2023/08/07 08:00:10;;;;;;;18.50;4.05;;;17.40;99.90;;;;;;5093437;28;20024;-69
2023/08/07 08:02:43;;;;;;;15.13;4.05;;;17.50;99.90;;;;;;5092922;28;20036;-72
2023/08/07 08:05:10;;;;;;;5.78;2.47;;;17.60;99.90;;;;;;5092886;28;20705;-69
2023/08/07 08:07:39;;;;;;;222.93;24.35;;;17.60;99.90;;;;;;5094410;28;20111;-70
2023/08/07 08:10:06;;;;;;;28.50;5.45;;;17.60;99.90;;;;;;5113540;28;20055;-71
2023/08/07 08:12:32;;;;;;;280.05;33.60;;;17.70;99.90;;;;;;5114665;28;20035;-70
2023/08/07 08:14:58;;;;;;;30.40;3.88;;;17.80;99.90;;;;;;5114248;28;20012;-70
2023/08/07 08:17:24;;;;;;;27.35;3.85;;;17.90;99.90;;;;;;5112650;28;20059;-70
2023/08/07 08:19:50;;;;;;;10.95;2.92;;;17.90;99.90;;;;;;5114189;28;20051;-70
2023/08/07 08:22:15;;;;;;;5.82;2.95;;;18.00;99.90;;;;;;5113114;28;20480;-71
2023/08/07 08:24:41;;;;;;;8.25;1.90;;;18.00;99.90;;;;;;5113727;28;20020;-71
2023/08/07 08:27:07;;;;;;;9.63;2.17;;;18.10;99.90;;;;;;5114258;28;20028;-70
2023/08/07 08:29:32;;;;;;;6.78;2.42;;;18.10;99.90;;;;;;5113944;28;20096;-70
2023/08/07 08:31:58;;;;;;;12.10;2.95;;;18.20;99.90;;;;;;5113942;28;20062;-70
2023/08/07 08:34:26;;;;;;;19.77;4.25;;;18.20;99.90;;;;;;5114247;28;20030;-70
2023/08/07 08:36:52;;;;;;;11.35;2.33;;;18.20;99.90;;;;;;5113889;28;20047;-72
2023/08/07 08:39:18;;;;;;;8.10;2.58;;;18.30;99.90;;;;;;5113701;28;20071;-71
2023/08/07 08:41:47;;;;;;;10.35;2.50;;;18.30;99.90;;;;;;5114042;28;20111;-71
2023/08/07 08:44:14;;;;;;;8.15;2.47;;;18.50;99.90;;;;;;5113784;28;20019;-69
2023/08/07 08:46:42;;;;;;;9.30;2.40;;;18.60;99.90;;;;;;5113313;28;20042;-71
2023/08/07 08:49:10;;;;;;;10.15;2.03;;;18.70;99.90;;;;;;5113463;28;20023;-71
2023/08/07 08:51:37;;;;;;;10.73;3.05;;;18.70;99.90;;;;;;5113608;28;20118;-70
2023/08/07 08:54:03;;;;;;;7.70;2.40;;;18.70;99.90;;;;;;5113456;28;20036;-72
2023/08/07 08:56:32;;;;;;;15.82;2.88;;;18.60;99.90;;;;;;5113580;28;20024;-72
2023/08/07 08:58:58;;;;;;;10.02;2.63;;;18.50;99.90;;;;;;5113221;28;20058;-72
2023/08/07 09:01:25;;;;;;;16.00;3.55;;;18.50;99.90;;;;;;5111851;28;20464;-72
2023/08/07 09:03:55;;;;;;;8.73;3.35;;;18.50;99.90;;;;;;5094522;28;20031;-72
2023/08/07 09:06:21;;;;;;;9.18;2.00;;;18.60;99.90;;;;;;5100329;28;20039;-72
2023/08/07 09:08:49;;;;;;;8.40;2.25;;;18.90;99.90;;;;;;5113032;28;20481;-72
2023/08/07 09:11:17;;;;;;;8.35;2.28;;;19.10;99.90;;;;;;5111659;28;20112;-72
2023/08/07 09:13:47;;;;;;;12.45;3.20;;;19.40;99.90;;;;;;5111236;28;20031;-73
2023/08/07 09:16:14;;;;;;;654.50;78.03;;;19.50;99.90;;;;;;5111354;28;20031;-72
2023/08/07 09:18:40;;;;;;;356.75;48.17;;;19.70;99.90;;;;;;5113201;28;20024;-73
2023/08/07 09:21:05;;;;;;;14.40;3.00;;;19.80;99.90;;;;;;5112549;28;20023;-73
2023/08/07 09:23:31;;;;;;;8.10;2.63;;;19.80;99.90;;;;;;5112314;28;20511;-72
2023/08/07 09:26:01;;;;;;;11.15;2.20;;;19.50;99.90;;;;;;5112945;28;20031;-72
2023/08/07 09:28:29;;;;;;;7.45;2.03;;;19.30;99.90;;;;;;5110952;28;20572;-73
2023/08/07 09:30:55;;;;;;;8.75;2.80;;;19.20;99.90;;;;;;5112244;28;20562;-72
2023/08/07 09:33:26;;;;;;;12.98;2.97;;;19.20;99.90;;;;;;5113225;27;20043;-72
2023/08/07 09:35:52;;;;;;;7.53;2.42;;;19.10;99.90;;;;;;5112759;28;20033;-72
2023/08/07 09:38:17;;;;;;;7.95;2.50;;;19.40;99.90;;;;;;5112137;28;20499;-72
2023/08/07 09:40:43;;;;;;;9.07;2.25;;;19.60;99.90;;;;;;5113092;28;20031;-72
2023/08/07 09:43:10;;;;;;;18.58;2.67;;;19.90;99.90;;;;;;5112795;28;20399;-73
2023/08/07 09:45:39;;;;;;;6.15;1.98;;;20.30;99.90;;;;;;5111949;28;20035;-72
2023/08/07 09:48:06;;;;;;;13.73;3.40;;;20.30;99.90;;;;;;5112701;28;20038;-73
2023/08/07 09:50:32;;;;;;;7.47;2.17;;;20.20;99.90;;;;;;5112909;28;20083;-72
2023/08/07 09:52:58;;;;;;;6.38;2.35;;;20.10;99.90;;;;;;5112780;28;20498;-72
2023/08/07 09:55:25;;;;;;;7.93;2.13;;;19.90;99.90;;;;;;5111537;28;20020;-72
2023/08/07 09:57:51;;;;;;;8.75;2.92;;;19.70;99.90;;;;;;5110981;28;20097;-73
2023/08/07 10:00:19;;;;;;;70.63;8.00;;;19.80;99.90;;;;;;5112027;28;20035;-73
2023/08/07 10:02:49;;;;;;;4.28;2.13;;;20.00;99.90;;;;;;5111996;28;20032;-73
2023/08/07 10:05:16;;;;;;;13.77;3.55;;;20.10;99.90;;;;;;5112574;28;20035;-73
2023/08/07 10:07:43;;;;;;;22.23;4.22;;;20.30;99.90;;;;;;5100428;28;20472;-73
2023/08/07 10:10:10;;;;;;;23.30;4.32;;;20.30;99.90;;;;;;5111454;28;20036;-73
2023/08/07 10:12:37;;;;;;;9.23;2.97;;;20.00;99.90;;;;;;5109562;28;20065;-72
2023/08/07 10:15:03;;;;;;;12.82;3.88;;;20.10;99.90;;;;;;5111833;28;20086;-71
2023/08/07 10:17:29;;;;;;;9.27;4.03;;;20.40;99.90;;;;;;5105195;28;20102;-72
2023/08/07 10:19:56;;;;;;;9.65;3.25;;;20.70;99.90;;;;;;5112302;28;20464;-71
2023/08/07 10:22:26;;;;;;;10.38;3.20;;;20.70;99.90;;;;;;5112327;28;20026;-72
2023/08/07 10:24:53;;;;;;;13.82;3.00;;;20.60;99.90;;;;;;5116227;28;20098;-73
2023/08/07 10:27:23;;;;;;;6.57;1.83;;;20.50;99.90;;;;;;5116315;28;20036;-72
2023/08/07 10:29:50;;;;;;;398.95;68.18;;;20.70;99.90;;;;;;5116052;28;20102;-71
2023/08/07 10:32:20;;;;;;;7.53;2.78;;;20.70;99.90;;;;;;5116083;28;20011;-71
2023/08/07 10:34:51;;;;;;;8.20;2.72;;;20.70;99.90;;;;;;5116475;28;20058;-72
2023/08/07 10:37:37;;;;;;;6.50;2.20;;;20.90;99.90;;;;;;5116553;28;20027;-72
2023/08/07 10:40:05;;;;;;;6.75;2.20;;;20.90;99.90;;;;;;5114646;28;20349;-72
2023/08/07 10:42:49;;;;;;;6.55;2.25;;;20.80;99.90;;;;;;5115976;28;20024;-72
2023/08/07 10:45:18;;;;;;;9.70;2.50;;;20.80;99.90;;;;;;5116050;28;20032;-71
2023/08/07 10:47:43;;;;;;;7.75;3.03;;;20.70;99.90;;;;;;5116151;28;20016;-72
2023/08/07 10:50:10;;;;;;;9.90;2.90;;;20.50;99.90;;;;;;5116040;28;20028;-71
2023/08/07 10:52:39;;;;;;;5.68;2.40;;;20.60;99.90;;;;;;5115004;28;20011;-70
2023/08/07 10:55:14;;;;;;;9.00;2.63;;;20.40;99.90;;;;;;5116231;28;20027;-72
2023/08/07 10:57:40;;;;;;;8.15;3.05;;;20.30;99.90;;;;;;5115848;28;20440;-71
2023/08/07 11:00:09;;;;;;;10.32;2.85;;;20.30;99.90;;;;;;5115274;28;20058;-72
2023/08/07 11:02:39;;;;;;;5.85;2.30;;;20.30;99.90;;;;;;5114343;28;20024;-71
2023/08/07 11:05:05;;;;;;;7.00;2.55;;;20.50;99.90;;;;;;5115723;28;20031;-72
2023/08/07 11:07:31;;;;;;;11.70;2.85;;;20.50;99.90;;;;;;5115277;28;20030;-70
2023/08/07 11:09:58;;;;;;;5.95;2.60;;;20.40;99.90;;;;;;5107836;28;20015;-71
2023/08/07 11:12:28;;;;;;;8.52;3.08;;;20.20;99.90;;;;;;5101744;28;20028;-72
2023/08/07 11:14:58;;;;;;;7.93;3.08;;;20.40;99.90;;;;;;5111504;28;20019;-72
2023/08/07 11:17:28;;;;;;;8.85;3.05;;;20.50;99.90;;;;;;5114599;28;20071;-71
2023/08/07 11:19:56;;;;;;;10.90;2.97;;;20.70;99.90;;;;;;5114127;28;20031;-72
2023/08/07 11:22:22;;;;;;;7.45;2.13;;;20.90;99.90;;;;;;5115298;28;20016;-72
2023/08/07 11:24:47;;;;;;;9.77;2.85;;;21.00;99.90;;;;;;5115218;27;20356;-73
2023/08/07 11:27:13;;;;;;;8.88;2.90;;;21.20;99.90;;;;;;5105928;28;20042;-72
2023/08/07 11:29:39;;;;;;;11.77;2.80;;;21.50;99.90;;;;;;5109306;28;20468;-72
2023/08/07 11:32:05;;;;;;;11.80;3.10;;;21.60;99.90;;;;;;5103256;28;20019;-72
2023/08/07 11:34:31;;;;;;;7.20;2.80;;;21.60;99.90;;;;;;5112104;28;20067;-72
2023/08/07 11:36:58;;;;;;;7.82;2.92;;;21.60;99.90;;;;;;5114367;28;20384;-72
2023/08/07 11:39:24;;;;;;;7.65;3.15;;;21.40;99.90;;;;;;5114428;28;20034;-72
2023/08/07 11:41:53;;;;;;;6.90;2.30;;;21.40;99.90;;;;;;5103324;28;20062;-72
2023/08/07 11:44:19;;;;;;;8.05;2.70;;;21.10;99.90;;;;;;5112828;28;20044;-73
2023/08/07 11:46:45;;;;;;;26.63;5.00;;;21.10;99.90;;;;;;5115016;28;20039;-72
2023/08/07 11:49:12;;;;;;;8.73;3.00;;;21.00;99.90;;;;;;5114726;28;20117;-71
2023/08/07 11:51:38;;;;;;;7.47;2.65;;;21.20;99.90;;;;;;5114818;28;20043;-72
2023/08/07 11:54:03;;;;;;;10.45;2.60;;;21.40;99.90;;;;;;5114506;27;20076;-73
2023/08/07 11:56:29;;;;;;;7.18;2.80;;;21.70;99.90;;;;;;5104233;28;20454;-72
2023/08/07 11:58:57;;;;;;;12.13;2.50;;;21.60;99.90;;;;;;5108816;28;20019;-72
2023/08/07 12:01:25;;;;;;;6.22;3.10;;;21.70;99.90;;;;;;5113349;28;20035;-73
2023/08/07 12:04:08;;;;;;;9.40;2.90;;;21.80;99.90;;;;;;5114589;28;20423;-72
2023/08/07 12:06:36;;;;;;;5.88;2.78;;;22.00;99.90;;;;;;5110923;27;20043;-73
2023/08/07 12:09:02;;;;;;;7.28;2.58;;;22.20;99.90;;;;;;5108230;28;20031;-73
2023/08/07 12:11:30;;;;;;;90.95;12.30;;;22.30;99.90;;;;;;5114327;28;20058;-72
2023/08/07 12:13:56;;;;;;;4.55;2.40;;;22.50;99.90;;;;;;5112863;28;20015;-72
2023/08/07 12:16:22;;;;;;;6.20;2.80;;;22.50;99.90;;;;;;5114024;28;20471;-72
2023/08/07 12:18:49;;;;;;;10.07;3.10;;;22.40;99.90;;;;;;5095601;28;20024;-73
2023/08/07 12:21:19;;;;;;;7.55;3.53;;;22.30;99.90;;;;;;5101956;28;20452;-73
2023/08/07 12:23:47;;;;;;;6.95;2.88;;;22.30;99.90;;;;;;5113866;28;20091;-73
2023/08/07 12:26:13;;;;;;;7.00;2.50;;;22.40;99.90;;;;;;5106269;28;20548;-72
2023/08/07 12:28:39;;;;;;;8.48;3.00;;;22.40;99.90;;;;;;5093213;28;20103;-72
2023/08/07 12:31:06;;;;;;;9.63;2.85;;;22.40;99.90;;;;;;5093282;28;20357;-72
2023/08/07 12:33:33;;;;;;;6.97;2.63;;;22.30;99.90;;;;;;5093553;28;20433;-72
2023/08/07 12:35:59;;;;;;;6.25;2.80;;;22.00;99.90;;;;;;5096696;28;20107;-72
2023/08/07 12:38:25;;;;;;;5.50;2.70;;;21.70;99.90;;;;;;5113701;28;20388;-72